createdAt,value
2024-02-23T00:01:59.363Z,8.80
2024-02-23T00:04:26.954Z,8.69
2024-02-23T00:06:54.716Z,8.69
2024-02-23T00:09:22.408Z,8.65
2024-02-23T00:11:50.774Z,8.67
2024-02-23T00:14:19.682Z,8.66
2024-02-23T00:16:48.064Z,8.60
2024-02-23T00:19:17.878Z,8.64
2024-02-23T00:21:48.791Z,8.64
2024-02-23T00:24:17.606Z,8.46
2024-02-23T00:26:45.869Z,8.44
2024-02-23T00:29:13.577Z,8.47
2024-02-23T00:31:42.195Z,8.56
2024-02-23T00:34:14.349Z,8.59
2024-02-23T00:36:43.073Z,8.57
2024-02-23T00:39:10.714Z,8.53
2024-02-23T00:41:38.474Z,8.56
2024-02-23T00:44:06.682Z,8.56
2024-02-23T00:46:35.127Z,8.49
2024-02-23T00:49:03.593Z,8.48
2024-02-23T00:51:31.279Z,8.51
2024-02-23T00:53:58.821Z,8.51
2024-02-23T00:56:30.086Z,8.51
2024-02-23T00:59:03.715Z,8.52
2024-02-23T01:01:33.099Z,8.49
2024-02-23T01:04:00.669Z,8.49
2024-02-23T01:06:29.516Z,8.54
2024-02-23T01:08:57.340Z,8.46
2024-02-23T01:11:25.084Z,8.48
2024-02-23T01:13:52.673Z,8.50
2024-02-23T01:16:20.232Z,8.47
2024-02-23T01:18:48.533Z,8.50
2024-02-23T01:21:16.626Z,8.48
2024-02-23T01:23:44.192Z,8.45
2024-02-23T01:26:11.778Z,8.45
2024-02-23T01:28:39.318Z,8.49
2024-02-23T01:31:11.825Z,8.56
2024-02-23T01:33:40.751Z,8.60
2024-02-23T01:36:09.133Z,8.54
2024-02-23T01:38:36.824Z,8.60
2024-02-23T01:41:05.526Z,8.63
2024-02-23T01:43:33.149Z,8.64
2024-02-23T01:46:00.983Z,8.67
2024-02-23T01:48:28.755Z,8.65
2024-02-23T01:50:57.091Z,8.60
2024-02-23T01:53:27.002Z,8.62
2024-02-23T01:55:55.535Z,8.71
2024-02-23T01:58:23.200Z,8.72
2024-02-23T02:00:50.773Z,8.71
2024-02-23T02:03:18.436Z,8.71
2024-02-23T02:05:46.695Z,8.69
2024-02-23T02:08:14.311Z,8.50
2024-02-23T02:10:43.684Z,8.51
2024-02-23T02:13:11.287Z,8.56
2024-02-23T02:15:38.996Z,8.47
2024-02-23T02:18:06.771Z,8.35
2024-02-23T02:20:36.872Z,8.38
2024-02-23T02:23:05.059Z,8.32
2024-02-23T02:25:32.620Z,8.33
2024-02-23T02:28:00.271Z,8.28
2024-02-23T02:30:27.890Z,8.29
2024-02-23T02:32:55.568Z,8.31
2024-02-23T02:35:23.173Z,8.30
2024-02-23T02:37:50.803Z,8.32
2024-02-23T02:40:18.381Z,8.33
2024-02-23T02:42:45.929Z,8.26
2024-02-23T02:45:13.627Z,8.31
2024-02-23T02:47:41.296Z,8.33
2024-02-23T02:50:10.242Z,8.35
2024-02-23T02:52:38.240Z,8.27
2024-02-23T02:55:06.087Z,8.24
2024-02-23T02:57:33.725Z,8.26
2024-02-23T03:00:01.372Z,8.28
2024-02-23T03:02:29.094Z,8.33
2024-02-23T03:04:56.815Z,8.29
2024-02-23T03:07:24.465Z,8.29
2024-02-23T03:09:52.111Z,8.31
2024-02-23T03:12:19.747Z,8.32
2024-02-23T03:14:47.725Z,8.31
2024-02-23T03:17:15.365Z,8.35
2024-02-23T03:19:43.172Z,8.38
2024-02-23T03:22:10.906Z,8.41
2024-02-23T03:24:38.924Z,8.36
2024-02-23T03:27:06.568Z,8.34
2024-02-23T03:29:34.398Z,8.34
2024-02-23T03:32:02.804Z,8.09
2024-02-23T03:34:30.492Z,8.04
2024-02-23T03:36:59.448Z,8.07
2024-02-23T03:39:27.053Z,8.05
2024-02-23T03:41:54.583Z,8.14
2024-02-23T03:44:22.281Z,8.19
2024-02-23T03:46:50.882Z,8.19
2024-02-23T03:49:18.527Z,8.20
2024-02-23T03:51:46.457Z,8.12
2024-02-23T03:54:14.076Z,8.00
2024-02-23T03:56:42.700Z,8.06
2024-02-23T03:59:11.532Z,8.06
2024-02-23T04:01:42.027Z,8.04
2024-02-23T04:04:09.754Z,8.08
2024-02-23T04:06:37.853Z,7.99
2024-02-23T04:09:06.583Z,7.96
2024-02-23T04:11:34.515Z,7.91
2024-02-23T04:14:02.983Z,7.92
2024-02-23T04:16:30.694Z,7.95
2024-02-23T04:18:58.506Z,7.91
2024-02-23T04:21:26.704Z,7.88
2024-02-23T04:23:54.251Z,7.89
2024-02-23T04:26:21.915Z,7.91
2024-02-23T04:28:49.686Z,7.85
2024-02-23T04:31:17.286Z,7.87
2024-02-23T04:33:44.865Z,7.90
2024-02-23T04:36:12.420Z,7.85
2024-02-23T04:38:39.976Z,7.89
2024-02-23T04:41:08.299Z,7.88
2024-02-23T04:43:36.127Z,7.86
2024-02-23T04:46:04.024Z,7.87
2024-02-23T04:48:34.183Z,7.89
2024-02-23T04:51:01.752Z,7.86
2024-02-23T04:53:29.853Z,7.89
2024-02-23T04:55:57.496Z,7.89
2024-02-23T04:58:25.128Z,7.90
2024-02-23T05:00:52.933Z,7.88
2024-02-23T05:03:20.489Z,7.88
2024-02-23T05:05:49.568Z,7.86
2024-02-23T05:08:17.372Z,7.86
2024-02-23T05:10:44.987Z,7.86
2024-02-23T05:13:12.563Z,7.86
2024-02-23T05:15:40.142Z,7.85
2024-02-23T05:18:07.991Z,7.86
2024-02-23T05:20:35.671Z,7.83
2024-02-23T05:23:03.867Z,7.83
2024-02-23T05:25:31.400Z,7.81
2024-02-23T05:27:58.962Z,7.79
2024-02-23T05:30:28.326Z,7.76
2024-02-23T05:32:56.383Z,7.78
2024-02-23T05:35:24.039Z,7.75
2024-02-23T05:37:51.661Z,7.75
2024-02-23T05:40:19.387Z,7.74
2024-02-23T05:42:47.532Z,7.73
2024-02-23T05:45:15.170Z,7.73
2024-02-23T05:47:46.166Z,7.73
2024-02-23T05:50:16.252Z,7.73
2024-02-23T05:52:44.052Z,7.72
2024-02-23T05:55:11.723Z,7.70
2024-02-23T05:57:39.289Z,7.67
2024-02-23T06:00:08.584Z,7.67
2024-02-23T06:02:40.145Z,7.65
2024-02-23T06:05:09.248Z,7.64
2024-02-23T06:07:37.922Z,7.64
2024-02-23T06:10:06.460Z,7.61
2024-02-23T06:12:34.060Z,7.58
2024-02-23T06:15:01.713Z,7.54
2024-02-23T06:17:29.468Z,7.53
2024-02-23T06:19:59.971Z,7.53
2024-02-23T06:22:27.563Z,7.52
2024-02-23T06:24:55.115Z,7.52
2024-02-23T06:27:23.022Z,7.48
2024-02-23T06:29:51.243Z,7.49
2024-02-23T06:32:18.946Z,7.48
2024-02-23T06:34:47.372Z,7.45
2024-02-23T06:37:14.987Z,7.44
2024-02-23T06:39:43.176Z,7.41
2024-02-23T06:42:10.916Z,7.38
2024-02-23T06:44:38.548Z,7.36
2024-02-23T06:47:07.911Z,7.34
2024-02-23T06:49:35.585Z,7.32
2024-02-23T06:52:03.345Z,7.29
2024-02-23T06:54:30.901Z,7.27
2024-02-23T06:56:58.893Z,7.25
2024-02-23T06:59:26.524Z,7.26
2024-02-23T07:01:54.899Z,7.25
2024-02-23T07:04:22.558Z,7.27
2024-02-23T07:06:50.144Z,7.28
2024-02-23T07:09:17.785Z,7.30
2024-02-23T07:11:46.712Z,7.30
2024-02-23T07:14:15.502Z,7.30
2024-02-23T07:16:43.418Z,7.30
2024-02-23T07:19:11.438Z,7.30
2024-02-23T07:21:42.393Z,7.36
2024-02-23T07:24:11.250Z,7.37
2024-02-23T07:26:39.160Z,7.38
2024-02-23T07:29:08.521Z,7.39
2024-02-23T07:31:36.213Z,7.41
2024-02-23T07:34:04.114Z,7.41
2024-02-23T07:36:31.908Z,7.43
2024-02-23T07:38:59.684Z,7.45
2024-02-23T07:41:27.601Z,7.45
2024-02-23T07:43:55.182Z,7.43
2024-02-23T07:46:26.348Z,7.41
2024-02-23T07:48:55.443Z,7.40
2024-02-23T07:51:23.235Z,7.42
2024-02-23T07:53:50.801Z,7.38
2024-02-23T07:56:18.835Z,7.39
2024-02-23T07:58:46.473Z,7.40
2024-02-23T08:01:15.762Z,7.42
2024-02-23T08:03:44.214Z,7.44
2024-02-23T08:06:14.106Z,7.42
2024-02-23T08:08:41.901Z,7.39
2024-02-23T08:11:09.603Z,7.36
2024-02-23T08:13:37.227Z,7.35
2024-02-23T08:16:05.101Z,7.36
2024-02-23T08:18:33.509Z,7.33
2024-02-23T08:21:03.826Z,7.33
2024-02-23T08:23:31.651Z,7.31
2024-02-23T08:25:59.632Z,7.30
2024-02-23T08:28:27.379Z,7.29
2024-02-23T08:30:55.059Z,7.30
2024-02-23T08:33:22.687Z,7.34
2024-02-23T08:35:50.445Z,7.35
2024-02-23T08:38:19.641Z,7.35
2024-02-23T08:40:47.513Z,7.35
2024-02-23T08:43:15.753Z,7.35
2024-02-23T08:45:43.383Z,7.37
2024-02-23T08:48:16.013Z,7.39
2024-02-23T08:50:43.679Z,7.40
2024-02-23T08:53:11.633Z,7.40
2024-02-23T08:55:39.273Z,7.40
2024-02-23T08:58:10.627Z,7.42
2024-02-23T09:00:38.198Z,7.40
2024-02-23T09:03:06.291Z,7.43
2024-02-23T09:05:33.982Z,7.45
2024-02-23T09:08:01.714Z,7.49
2024-02-23T09:10:29.300Z,7.54
2024-02-23T09:12:56.837Z,7.58
2024-02-23T09:15:24.424Z,7.63
2024-02-23T09:17:52.042Z,7.67
2024-02-23T09:20:19.652Z,7.69
2024-02-23T09:22:47.218Z,7.69
2024-02-23T09:25:14.972Z,7.71
2024-02-23T09:27:44.871Z,7.77
2024-02-23T09:30:14.318Z,7.78
2024-02-23T09:32:42.639Z,7.81
2024-02-23T09:35:10.431Z,7.86
2024-02-23T09:37:38.067Z,7.92
2024-02-23T09:40:07.101Z,7.97
2024-02-23T09:42:36.819Z,8.04
2024-02-23T09:45:06.014Z,8.15
2024-02-23T09:47:33.724Z,8.24
2024-02-23T09:50:04.943Z,8.35
2024-02-23T09:52:33.720Z,8.45
2024-02-23T09:55:01.313Z,8.54
2024-02-23T09:57:29.026Z,8.57
2024-02-23T09:59:57.057Z,8.63
2024-02-23T10:02:24.879Z,8.71
2024-02-23T10:04:55.294Z,8.79
2024-02-23T10:07:23.023Z,8.79
2024-02-23T10:09:50.601Z,8.78
2024-02-23T10:12:19.214Z,8.81
2024-02-23T10:14:46.978Z,8.83
2024-02-23T10:17:14.639Z,8.87
2024-02-23T10:19:42.280Z,8.90
2024-02-23T10:22:10.639Z,8.87
2024-02-23T10:24:38.348Z,8.92
2024-02-23T10:27:05.924Z,8.91
2024-02-23T10:29:33.499Z,8.93
2024-02-23T10:32:04.758Z,8.97
2024-02-23T10:34:32.816Z,9.07
2024-02-23T10:37:00.986Z,9.13
2024-02-23T10:39:31.776Z,9.14
2024-02-23T10:42:04.941Z,9.17
2024-02-23T10:44:33.011Z,9.20
2024-02-23T10:47:01.652Z,9.23
2024-02-23T10:49:29.453Z,9.29
2024-02-23T10:51:58.034Z,9.39
2024-02-23T10:54:27.324Z,9.44
2024-02-23T10:56:56.883Z,9.43
2024-02-23T10:59:25.262Z,9.46
2024-02-23T11:01:55.666Z,9.51
2024-02-23T11:04:23.861Z,9.58
2024-02-23T11:06:59.473Z,9.65
2024-02-23T11:09:27.461Z,9.69
2024-02-23T11:11:56.586Z,9.72
2024-02-23T11:14:38.711Z,9.72
2024-02-23T11:17:07.096Z,9.76
2024-02-23T11:19:36.906Z,9.77
2024-02-23T11:22:06.589Z,9.79
2024-02-23T11:24:35.428Z,9.84
2024-02-23T11:27:10.123Z,9.84
2024-02-23T11:29:40.715Z,9.81
2024-02-23T11:32:16.698Z,9.83
2024-02-23T11:34:59.320Z,9.88
2024-02-23T11:37:31.015Z,9.93
2024-02-23T11:39:59.485Z,9.96
2024-02-23T11:42:28.363Z,9.96
2024-02-23T11:44:56.048Z,9.99
2024-02-23T11:47:23.679Z,10.02
2024-02-23T11:49:51.277Z,10.07
2024-02-23T11:52:19.012Z,10.09
2024-02-23T11:54:47.244Z,10.09
2024-02-23T11:57:15.598Z,10.05
2024-02-23T11:59:43.274Z,10.08
2024-02-23T12:02:10.948Z,10.13
2024-02-23T12:04:38.654Z,10.26
2024-02-23T12:07:06.242Z,10.31
2024-02-23T12:09:33.875Z,10.38
2024-02-23T12:12:01.752Z,10.46
2024-02-23T12:14:29.387Z,10.55
2024-02-23T12:17:22.474Z,10.62
2024-02-23T12:19:52.810Z,10.68
2024-02-23T12:22:26.566Z,10.70
2024-02-23T12:24:54.574Z,10.68
2024-02-23T12:27:22.770Z,10.67
2024-02-23T12:29:56.663Z,10.70
2024-02-23T12:32:24.498Z,10.69
2024-02-23T12:34:53.431Z,10.72
2024-02-23T12:37:23.666Z,10.73
2024-02-23T12:39:51.270Z,10.69
2024-02-23T12:42:20.323Z,10.68
2024-02-23T12:44:48.617Z,10.68
2024-02-23T12:47:16.211Z,10.61
2024-02-23T12:49:45.701Z,10.62
2024-02-23T12:52:14.120Z,10.60
2024-02-23T12:54:43.043Z,10.60
2024-02-23T12:57:10.645Z,10.56
2024-02-23T12:59:38.319Z,10.61
2024-02-23T13:02:08.930Z,10.62
2024-02-23T13:04:36.551Z,10.63
2024-02-23T13:07:04.182Z,10.65
2024-02-23T13:09:31.754Z,10.64
2024-02-23T13:11:59.444Z,10.63
2024-02-23T13:14:27.199Z,10.68
2024-02-23T13:16:54.977Z,10.66
2024-02-23T13:19:23.004Z,10.66
2024-02-23T13:21:50.645Z,10.65
2024-02-23T13:24:18.258Z,10.66
2024-02-23T13:26:46.159Z,10.66
2024-02-23T13:29:18.291Z,10.64
2024-02-23T13:31:45.878Z,10.63
2024-02-23T13:34:16.767Z,10.68
2024-02-23T13:36:45.130Z,10.70
2024-02-23T13:39:12.727Z,10.67
2024-02-23T13:41:40.404Z,10.70
2024-02-23T13:44:08.472Z,10.70
2024-02-23T13:46:42.089Z,10.71
2024-02-23T13:49:10.816Z,10.71
2024-02-23T13:51:38.668Z,10.73
2024-02-23T13:54:06.300Z,10.74
2024-02-23T13:56:34.026Z,10.63
2024-02-23T13:59:01.674Z,10.59
2024-02-23T14:01:29.278Z,10.54
2024-02-23T14:03:56.940Z,10.54
2024-02-23T14:06:25.293Z,10.55
2024-02-23T14:08:52.927Z,10.51
2024-02-23T14:11:20.789Z,10.51
2024-02-23T14:13:51.047Z,10.47
2024-02-23T14:16:19.570Z,10.56
2024-02-23T14:18:47.717Z,10.62
2024-02-23T14:21:16.062Z,10.62
2024-02-23T14:23:43.919Z,10.66
2024-02-23T14:26:12.001Z,10.71
2024-02-23T14:28:40.389Z,10.74
2024-02-23T14:31:08.092Z,10.77
2024-02-23T14:33:35.764Z,10.80
2024-02-23T14:36:04.060Z,10.87
2024-02-23T14:38:31.638Z,10.89
2024-02-23T14:41:00.064Z,10.96
2024-02-23T14:43:27.761Z,11.00
2024-02-23T14:45:55.400Z,11.04
2024-02-23T14:48:23.141Z,11.06
2024-02-23T14:50:50.822Z,11.07
2024-02-23T14:53:18.537Z,11.10
2024-02-23T14:55:46.134Z,11.10
2024-02-23T14:58:14.023Z,11.08
2024-02-23T15:00:42.053Z,11.04
2024-02-23T15:03:10.523Z,10.97
2024-02-23T15:05:38.283Z,10.90
2024-02-23T15:08:08.440Z,10.91
2024-02-23T15:10:36.200Z,10.92
2024-02-23T15:13:03.947Z,10.90
2024-02-23T15:15:31.567Z,10.89
2024-02-23T15:17:59.198Z,10.84
2024-02-23T15:20:26.975Z,10.80
2024-02-23T15:22:54.851Z,10.81
2024-02-23T15:25:22.459Z,10.79
2024-02-23T15:27:50.246Z,10.77
2024-02-23T15:30:18.161Z,10.79
2024-02-23T15:32:45.867Z,10.78
2024-02-23T15:35:13.624Z,10.78
2024-02-23T15:37:41.245Z,10.79
2024-02-23T15:40:09.912Z,10.82
2024-02-23T15:42:38.048Z,10.87
2024-02-23T15:45:09.855Z,10.88
2024-02-23T15:47:37.866Z,10.87
2024-02-23T15:50:22.891Z,10.85
2024-02-23T15:52:53.695Z,10.88
2024-02-23T15:55:21.350Z,10.86
2024-02-23T15:57:48.944Z,10.88
2024-02-23T16:00:17.975Z,10.87
2024-02-23T16:02:45.808Z,10.81
2024-02-23T16:05:13.439Z,10.73
2024-02-23T16:07:41.114Z,10.66
2024-02-23T16:10:10.297Z,10.56
2024-02-23T16:12:38.023Z,10.42
2024-02-23T16:15:07.979Z,10.31
2024-02-23T16:17:37.995Z,10.24
2024-02-23T16:20:06.734Z,10.16
2024-02-23T16:22:34.502Z,10.05
2024-02-23T16:25:02.176Z,9.98
2024-02-23T16:27:29.756Z,9.94
2024-02-23T16:29:57.446Z,9.91
2024-02-23T16:32:25.116Z,9.86
2024-02-23T16:34:52.790Z,9.82
2024-02-23T16:37:20.426Z,9.82
2024-02-23T16:39:48.134Z,9.78
2024-02-23T16:42:15.759Z,9.77
2024-02-23T16:44:43.393Z,9.71
2024-02-23T16:47:10.998Z,9.69
2024-02-23T16:49:38.725Z,9.66
2024-02-23T16:52:07.457Z,9.65
2024-02-23T16:54:35.191Z,9.62
2024-02-23T16:57:02.822Z,9.58
2024-02-23T16:59:30.418Z,9.55
2024-02-23T17:01:59.328Z,9.52
2024-02-23T17:04:27.059Z,9.49
2024-02-23T17:06:54.860Z,9.46
2024-02-23T17:09:22.447Z,9.43
2024-02-23T17:11:50.125Z,9.39
2024-02-23T17:14:17.875Z,9.36
2024-02-23T17:16:45.505Z,9.36
2024-02-23T17:19:13.795Z,9.32
2024-02-23T17:21:41.436Z,9.30
2024-02-23T17:24:09.209Z,9.27
2024-02-23T17:26:37.027Z,9.23
2024-02-23T17:29:04.883Z,9.20
2024-02-23T17:31:32.499Z,9.17
2024-02-23T17:34:00.118Z,9.15
2024-02-23T17:36:27.736Z,9.13
2024-02-23T17:38:55.325Z,9.10
2024-02-23T17:41:25.122Z,9.05
2024-02-23T17:43:53.013Z,9.03
2024-02-23T17:46:20.686Z,8.99
2024-02-23T17:48:48.440Z,8.97
2024-02-23T17:51:16.222Z,8.98
2024-02-23T17:53:43.981Z,8.95
2024-02-23T17:56:11.931Z,8.95
2024-02-23T17:58:39.598Z,8.95
2024-02-23T18:01:07.290Z,8.98
2024-02-23T18:03:34.955Z,8.98
2024-02-23T18:06:03.083Z,8.98
2024-02-23T18:08:30.649Z,8.96
2024-02-23T18:10:58.302Z,8.91
2024-02-23T18:13:25.915Z,8.88
2024-02-23T18:15:53.521Z,8.86
2024-02-23T18:18:21.664Z,8.83
2024-02-23T18:20:49.513Z,8.82
2024-02-23T18:23:17.656Z,8.81
2024-02-23T18:25:45.210Z,8.74
2024-02-23T18:28:12.769Z,8.74
2024-02-23T18:30:40.446Z,8.72
2024-02-23T18:33:08.099Z,8.71
2024-02-23T18:35:35.835Z,8.70
2024-02-23T18:38:03.533Z,8.67
2024-02-23T18:40:31.180Z,8.65
2024-02-23T18:42:58.740Z,8.63
2024-02-23T18:45:26.404Z,8.60
2024-02-23T18:47:54.163Z,8.55
2024-02-23T18:50:21.887Z,8.50
2024-02-23T18:52:49.548Z,8.46
2024-02-23T18:55:17.128Z,8.43
2024-02-23T18:57:44.702Z,8.37
2024-02-23T19:00:12.939Z,8.36
2024-02-23T19:02:40.549Z,8.35
2024-02-23T19:05:09.833Z,8.33
2024-02-23T19:07:37.777Z,8.32
2024-02-23T19:10:07.659Z,8.29
2024-02-23T19:12:37.105Z,8.28
2024-02-23T19:15:05.584Z,8.26
2024-02-23T19:18:23.032Z,8.20
2024-02-23T19:20:50.818Z,8.18
2024-02-23T19:23:18.755Z,8.18
2024-02-23T19:25:46.370Z,8.16
2024-02-23T19:28:13.972Z,8.14
2024-02-23T19:30:44.002Z,8.13
2024-02-23T19:33:11.945Z,8.10
2024-02-23T19:35:39.777Z,8.06
2024-02-23T19:38:07.403Z,8.03
2024-02-23T19:40:35.016Z,8.01
2024-02-23T19:43:02.657Z,7.97
2024-02-23T19:45:30.238Z,7.95
2024-02-23T19:47:57.974Z,7.95
2024-02-23T19:50:25.899Z,7.93
2024-02-23T19:52:53.491Z,7.92
2024-02-23T19:55:21.164Z,7.89
2024-02-23T19:57:48.785Z,7.88
2024-02-23T20:00:16.798Z,7.88
2024-02-23T20:02:44.559Z,7.86
2024-02-23T20:05:12.273Z,7.86
2024-02-23T20:07:39.920Z,7.86
2024-02-23T20:10:09.045Z,7.87
2024-02-23T20:12:36.769Z,7.84
2024-02-23T20:15:05.114Z,7.82
2024-02-23T20:17:35.043Z,7.79
2024-02-23T20:20:05.267Z,7.80
2024-02-23T20:22:32.816Z,7.81
2024-02-23T20:25:01.764Z,7.83
2024-02-23T20:27:29.436Z,7.83
2024-02-23T20:29:57.060Z,7.82
2024-02-23T20:32:30.001Z,7.80
2024-02-23T20:35:00.525Z,7.76
2024-02-23T20:37:29.820Z,7.78
2024-02-23T20:39:57.466Z,7.76
2024-02-23T20:42:25.059Z,7.74
2024-02-23T20:44:52.623Z,7.71
2024-02-23T20:47:20.261Z,7.67
2024-02-23T20:49:49.492Z,7.65
2024-02-23T20:52:19.081Z,7.62
2024-02-23T20:54:49.743Z,7.59
2024-02-23T20:57:18.546Z,7.58
2024-02-23T20:59:46.341Z,7.57
2024-02-23T21:02:20.267Z,7.56
2024-02-23T21:04:49.668Z,7.54
2024-02-23T21:07:18.898Z,7.53
2024-02-23T21:09:47.085Z,7.52
2024-02-23T21:12:15.234Z,7.50
2024-02-23T21:14:43.094Z,7.49
2024-02-23T21:17:10.746Z,7.48
2024-02-23T21:19:38.322Z,7.46
2024-02-23T21:22:06.256Z,7.44
2024-02-23T21:24:33.874Z,7.39
2024-02-23T21:27:01.462Z,7.37
2024-02-23T21:29:29.149Z,7.35
2024-02-23T21:31:56.928Z,7.30
2024-02-23T21:34:24.584Z,7.26
2024-02-23T21:36:52.160Z,7.24
2024-02-23T21:39:19.706Z,7.21
2024-02-23T21:41:47.476Z,7.19
2024-02-23T21:44:16.640Z,7.17
2024-02-23T21:46:44.736Z,7.14
2024-02-23T21:49:12.330Z,7.14
2024-02-23T21:51:39.947Z,7.12
2024-02-23T21:54:07.703Z,7.09
2024-02-23T21:56:35.291Z,7.08
2024-02-23T21:59:02.894Z,7.04
2024-02-23T22:01:32.301Z,7.02
2024-02-23T22:03:59.884Z,7.03
2024-02-23T22:06:27.489Z,7.03
2024-02-23T22:08:55.052Z,7.05
2024-02-23T22:11:22.724Z,7.03
2024-02-23T22:13:50.382Z,7.03
2024-02-23T22:16:17.925Z,7.02
2024-02-23T22:18:45.708Z,6.99
2024-02-23T22:21:13.532Z,7.00
2024-02-23T22:23:41.171Z,7.07
2024-02-23T22:26:08.847Z,7.06
2024-02-23T22:28:36.532Z,7.01
2024-02-23T22:31:04.153Z,7.02
2024-02-23T22:33:31.912Z,7.02
2024-02-23T22:35:59.500Z,7.02
2024-02-23T22:38:27.063Z,7.03
2024-02-23T22:40:54.635Z,6.98
2024-02-23T22:43:22.298Z,6.93
2024-02-23T22:45:52.348Z,6.92
2024-02-23T22:48:20.137Z,6.93
2024-02-23T22:50:47.886Z,6.95
2024-02-23T22:53:15.539Z,6.95
2024-02-23T22:55:43.103Z,6.97
2024-02-23T22:58:10.693Z,6.95
2024-02-23T23:00:38.292Z,6.94
2024-02-23T23:03:05.868Z,6.97
2024-02-23T23:05:33.578Z,6.96
2024-02-23T23:08:02.055Z,6.97
2024-02-23T23:10:29.801Z,6.90
2024-02-23T23:12:57.357Z,6.89
2024-02-23T23:15:24.944Z,6.88
2024-02-23T23:17:52.643Z,6.86
2024-02-23T23:20:20.669Z,6.81
2024-02-23T23:22:48.452Z,6.78
2024-02-23T23:25:16.620Z,6.80
2024-02-23T23:27:44.227Z,6.76
2024-02-23T23:30:12.844Z,6.79
2024-02-23T23:32:41.307Z,6.80
2024-02-23T23:35:09.437Z,6.81
2024-02-23T23:37:38.190Z,6.81
2024-02-23T23:40:06.603Z,6.84
2024-02-23T23:42:34.525Z,6.87
2024-02-23T23:45:02.233Z,6.90
2024-02-23T23:47:29.982Z,6.88
2024-02-23T23:49:57.563Z,6.90
2024-02-23T23:52:25.125Z,6.89
2024-02-23T23:54:52.744Z,6.93
2024-02-23T23:57:20.310Z,6.93
2024-02-23T23:59:48.053Z,6.89
